Time;durP1;ratioP1;P1;durP2;ratioP2;P2;SDS_P1;SDS_P2;PMS_P1;PMS_P2;Temp;Humidity;BMP_temperature;BMP_pressure;BME280_temperature;BME280_humidity;BME280_pressure;Samples;Min_cycle;Max_cycle;Signal;HPM_P1;HPM_P2
2021/12/23 00:09:16;;;;;;;24.75;17.35;;;;;;;;;;21091719;28;20044;-64
2021/12/23 00:29:20;;;;;;;26.70;18.40;;;;;;;;;;21088957;28;20044;-62
2021/12/23 00:39:22;;;;;;;29.15;19.10;;;;;;;;;;21089663;28;20051;-62
2021/12/23 00:49:24;;;;;;;32.30;20.92;;;;;;;;;;21088706;28;20074;-61
2021/12/23 00:59:26;;;;;;;24.17;15.27;;;;;;;;;;21087239;28;20087;-61
2021/12/23 01:09:28;;;;;;;20.70;14.68;;;;;;;;;;21086137;28;20040;-63
2021/12/23 01:19:38;;;;;;;21.20;14.55;;;;;;;;;;21085954;28;20056;-62
2021/12/23 01:29:42;;;;;;;26.70;18.98;;;;;;;;;;21085320;28;20516;-62
2021/12/23 01:39:44;;;;;;;30.58;22.35;;;;;;;;;;21084911;28;20056;-62
2021/12/23 01:49:46;;;;;;;25.15;17.85;;;;;;;;;;21083494;28;20090;-61
2021/12/23 01:59:48;;;;;;;23.15;17.88;;;;;;;;;;21082707;28;20074;-61
2021/12/23 02:09:50;;;;;;;25.98;17.13;;;;;;;;;;21081936;28;20048;-62
2021/12/23 02:19:56;;;;;;;22.90;15.73;;;;;;;;;;21081615;28;20387;-63
2021/12/23 02:29:59;;;;;;;24.05;14.93;;;;;;;;;;21079243;28;20052;-61
2021/12/23 02:40:03;;;;;;;23.63;14.25;;;;;;;;;;21079882;28;20044;-62
2021/12/23 02:50:11;;;;;;;20.15;13.45;;;;;;;;;;21077828;28;20052;-63
2021/12/23 03:00:16;;;;;;;19.80;13.20;;;;;;;;;;21079094;28;20059;-64
2021/12/23 03:10:23;;;;;;;19.52;13.10;;;;;;;;;;21078417;28;20109;-61
2021/12/23 03:20:27;;;;;;;19.63;12.90;;;;;;;;;;21077662;28;20052;-62
2021/12/23 03:30:31;;;;;;;19.13;13.23;;;;;;;;;;21077534;28;20055;-61
2021/12/23 03:40:36;;;;;;;18.47;12.43;;;;;;;;;;21077273;28;20527;-62
2021/12/23 03:50:40;;;;;;;18.83;12.95;;;;;;;;;;21076212;28;20055;-62
2021/12/23 04:00:43;;;;;;;18.40;12.55;;;;;;;;;;21077992;28;20048;-64
2021/12/23 04:10:45;;;;;;;18.45;11.57;;;;;;;;;;21091721;28;20048;-61
2021/12/23 04:20:54;;;;;;;18.63;10.95;;;;;;;;;;21091291;28;20171;-61
2021/12/23 04:30:59;;;;;;;17.92;10.85;;;;;;;;;;21090772;28;20410;-63
2021/12/23 04:41:01;;;;;;;19.67;13.57;;;;;;;;;;21090495;28;20105;-61
2021/12/23 04:51:07;;;;;;;15.88;10.73;;;;;;;;;;21088665;28;20044;-63
2021/12/23 05:01:18;;;;;;;16.73;11.80;;;;;;;;;;21087655;28;20387;-63
2021/12/23 05:11:21;;;;;;;17.55;11.10;;;;;;;;;;21087636;28;20101;-62
2021/12/23 05:21:25;;;;;;;15.73;9.93;;;;;;;;;;21085605;28;20048;-61
2021/12/23 05:31:28;;;;;;;16.10;10.48;;;;;;;;;;21085273;28;20410;-63
2021/12/23 05:41:31;;;;;;;18.80;10.73;;;;;;;;;;21084735;28;20521;-62
2021/12/23 05:51:34;;;;;;;14.80;10.43;;;;;;;;;;21083540;28;20052;-63
2021/12/23 06:01:36;;;;;;;14.32;9.35;;;;;;;;;;21082872;28;20063;-62
2021/12/23 06:11:39;;;;;;;245.13;156.13;;;;;;;;;;21082133;28;20509;-62
2021/12/23 06:21:42;;;;;;;19.92;10.65;;;;;;;;;;21081649;28;20586;-62
2021/12/23 06:31:44;;;;;;;15.18;10.10;;;;;;;;;;21080464;28;20052;-61
2021/12/23 06:41:46;;;;;;;15.75;10.38;;;;;;;;;;21079635;28;20143;-61
2021/12/23 06:51:50;;;;;;;15.57;10.50;;;;;;;;;;21079126;28;20102;-62
2021/12/23 07:01:52;;;;;;;14.13;10.32;;;;;;;;;;21079055;28;20547;-62
2021/12/23 07:11:55;;;;;;;18.15;10.88;;;;;;;;;;21078985;28;20048;-62
2021/12/23 07:21:58;;;;;;;15.93;10.63;;;;;;;;;;21078226;28;20059;-64
2021/12/23 07:32:03;;;;;;;19.15;11.00;;;;;;;;;;21077723;28;20128;-64
2021/12/23 07:42:14;;;;;;;16.87;10.23;;;;;;;;;;21087951;28;20059;-63
2021/12/23 07:52:18;;;;;;;14.63;9.57;;;;;;;;;;21092234;28;20079;-65
2021/12/23 08:02:21;;;;;;;17.08;11.88;;;;;;;;;;21092153;28;20055;-65
2021/12/23 08:12:24;;;;;;;20.58;10.75;;;;;;;;;;21091674;28;20101;-64
2021/12/23 08:22:27;;;;;;;11.80;8.68;;;;;;;;;;21089021;28;20120;-62
2021/12/23 08:32:29;;;;;;;14.20;8.57;;;;;;;;;;21088234;28;20040;-64
2021/12/23 08:42:30;;;;;;;14.77;9.27;;;;;;;;;;21088572;28;20048;-64
2021/12/23 08:52:34;;;;;;;28.80;11.23;;;;;;;;;;21087509;28;20118;-63
2021/12/23 09:02:40;;;;;;;14.90;9.43;;;;;;;;;;21087447;28;20056;-63
2021/12/23 09:12:46;;;;;;;17.67;8.80;;;;;;;;;;21087071;28;20546;-63
2021/12/23 09:22:52;;;;;;;15.13;9.57;;;;;;;;;;21085401;28;20090;-62
2021/12/23 09:33:00;;;;;;;14.02;9.43;;;;;;;;;;21083585;28;20054;-63
2021/12/23 09:43:05;;;;;;;12.20;8.35;;;;;;;;;;21083767;28;20102;-63
2021/12/23 09:53:08;;;;;;;12.95;8.25;;;;;;;;;;21082550;28;20422;-62
2021/12/23 10:03:11;;;;;;;14.25;9.63;;;;;;;;;;21080966;28;20048;-62
2021/12/23 10:44:31;;;;;;;16.38;9.32;;;;;;;;;;21079292;28;20027;-64
2021/12/23 11:05:05;;;;;;;12.82;8.25;;;;;;;;;;21079887;28;20055;-55
2021/12/23 11:46:21;;;;;;;11.23;7.90;;;;;;;;;;21076778;28;20040;-60
2021/12/23 11:56:24;;;;;;;15.73;9.18;;;;;;;;;;21075707;28;20056;-61
2021/12/23 12:06:46;;;;;;;14.05;7.88;;;;;;;;;;21076209;28;20052;-63
2021/12/23 12:16:48;;;;;;;14.70;7.78;;;;;;;;;;21074906;28;20494;-62
2021/12/23 12:27:03;;;;;;;32.75;22.02;;;;;;;;;;21083568;28;20493;-63
2021/12/23 12:37:07;;;;;;;12.20;7.20;;;;;;;;;;21089084;28;20135;-60
2021/12/23 12:47:18;;;;;;;10.83;7.03;;;;;;;;;;21088441;28;20526;-62
2021/12/23 12:57:21;;;;;;;12.70;7.30;;;;;;;;;;21087409;28;20060;-59
2021/12/23 13:07:34;;;;;;;11.97;7.20;;;;;;;;;;21087127;28;20044;-62
2021/12/23 13:17:44;;;;;;;11.48;7.13;;;;;;;;;;21086886;28;20383;-64
2021/12/23 13:27:48;;;;;;;13.30;7.93;;;;;;;;;;21086208;28;20414;-63
2021/12/23 13:37:50;;;;;;;11.10;7.35;;;;;;;;;;21083742;28;20047;-62
2021/12/23 13:47:55;;;;;;;15.80;8.20;;;;;;;;;;21084013;28;20048;-66
2021/12/23 13:57:59;;;;;;;9.07;7.30;;;;;;;;;;21086237;28;20456;-61
2021/12/23 14:08:04;;;;;;;15.77;10.48;;;;;;;;;;21082642;28;20519;-61
2021/12/23 14:18:15;;;;;;;14.90;9.10;;;;;;;;;;21080934;28;20056;-60
2021/12/23 14:28:19;;;;;;;17.35;11.25;;;;;;;;;;21079780;28;20387;-61
2021/12/23 14:38:30;;;;;;;13.82;11.00;;;;;;;;;;21079283;28;20052;-60
2021/12/23 14:48:54;;;;;;;10.98;9.05;;;;;;;;;;21077897;28;20055;-61
2021/12/23 14:59:04;;;;;;;15.57;11.13;;;;;;;;;;21079184;28;20062;-62
2021/12/23 15:09:21;;;;;;;14.82;10.48;;;;;;;;;;21077207;28;20052;-61
2021/12/23 15:19:36;;;;;;;18.60;11.05;;;;;;;;;;21076596;28;20052;-60
2021/12/23 15:29:39;;;;;;;16.83;10.90;;;;;;;;;;21076900;28;20513;-64
2021/12/23 15:39:43;;;;;;;17.90;11.57;;;;;;;;;;21077045;28;20482;-67
2021/12/23 15:49:46;;;;;;;19.17;11.85;;;;;;;;;;21074432;28;20048;-68
2021/12/23 15:59:51;;;;;;;21.50;12.93;;;;;;;;;;21079817;28;20405;-62
2021/12/23 16:09:55;;;;;;;16.13;10.93;;;;;;;;;;21091531;28;20139;-63
2021/12/23 16:20:00;;;;;;;25.55;14.18;;;;;;;;;;21090576;28;20051;-61
2021/12/23 16:30:07;;;;;;;23.95;16.60;;;;;;;;;;21090201;28;20040;-61
2021/12/23 16:40:12;;;;;;;40.00;27.70;;;;;;;;;;21089436;28;20054;-66
2021/12/23 16:50:16;;;;;;;32.25;25.02;;;;;;;;;;21088949;28;20146;-67
2021/12/23 17:00:20;;;;;;;37.40;28.33;;;;;;;;;;21088209;28;20044;-61
2021/12/23 17:10:25;;;;;;;28.60;20.87;;;;;;;;;;21085417;28;20052;-66
2021/12/23 17:21:48;;;;;;;24.92;20.83;;;;;;;;;;21086914;28;20413;-67
2021/12/23 17:30:51;;;;;;;28.15;20.15;;;;;;;;;;21085459;28;20048;-63
2021/12/23 17:40:53;;;;;;;33.05;21.95;;;;;;;;;;21084011;28;20052;-65
2021/12/23 17:50:55;;;;;;;30.50;22.52;;;;;;;;;;21082957;28;20135;-66
2021/12/23 18:00:57;;;;;;;35.17;24.25;;;;;;;;;;21085745;28;20044;-61
2021/12/23 18:10:59;;;;;;;33.30;22.40;;;;;;;;;;21084074;28;20447;-62
2021/12/23 18:21:01;;;;;;;29.73;20.63;;;;;;;;;;21081642;28;20055;-67
2021/12/23 18:31:03;;;;;;;26.20;19.42;;;;;;;;;;21080267;28;20485;-70
2021/12/23 18:41:05;;;;;;;32.20;24.02;;;;;;;;;;21081213;28;20416;-61
2021/12/23 18:51:07;;;;;;;32.72;25.30;;;;;;;;;;21023128;28;20059;-58
2021/12/23 19:01:14;;;;;;;28.85;21.33;;;;;;;;;;21018766;28;20060;-52
2021/12/23 19:11:17;;;;;;;39.53;26.80;;;;;;;;;;20992746;28;20059;-57
2021/12/23 19:21:19;;;;;;;45.05;30.23;;;;;;;;;;21074940;28;20048;-59
2021/12/23 19:31:23;;;;;;;32.65;24.17;;;;;;;;;;21076583;28;20052;-60
2021/12/23 19:41:26;;;;;;;35.78;26.90;;;;;;;;;;21088370;28;20048;-59
2021/12/23 19:51:28;;;;;;;35.20;27.20;;;;;;;;;;21090732;28;20082;-61
2021/12/23 20:01:30;;;;;;;37.40;26.42;;;;;;;;;;21092181;28;20051;-59
2021/12/23 20:11:32;;;;;;;38.33;29.75;;;;;;;;;;21093261;28;20052;-59
2021/12/23 20:21:35;;;;;;;44.47;31.13;;;;;;;;;;21091372;28;20412;-57
2021/12/23 20:31:39;;;;;;;41.85;28.48;;;;;;;;;;21090082;28;20047;-59
2021/12/23 20:41:41;;;;;;;35.67;22.65;;;;;;;;;;21089121;28;20044;-58
2021/12/23 20:51:45;;;;;;;36.67;25.38;;;;;;;;;;21088303;28;20466;-59
2021/12/23 21:01:47;;;;;;;32.58;22.48;;;;;;;;;;21087471;28;20052;-59
2021/12/23 21:11:50;;;;;;;37.38;25.33;;;;;;;;;;21087540;28;20043;-59
2021/12/23 21:21:52;;;;;;;33.53;23.10;;;;;;;;;;21086183;28;20152;-57
2021/12/23 21:31:54;;;;;;;33.92;22.17;;;;;;;;;;21085784;28;20074;-58
2021/12/23 21:42:02;;;;;;;36.00;22.90;;;;;;;;;;21084797;28;20075;-58
2021/12/23 21:52:04;;;;;;;32.60;21.85;;;;;;;;;;21084311;28;20059;-57
2021/12/23 22:02:06;;;;;;;27.08;19.02;;;;;;;;;;21082338;28;20048;-57
2021/12/23 22:12:08;;;;;;;26.50;19.02;;;;;;;;;;21082240;28;20044;-59
2021/12/23 22:22:10;;;;;;;25.63;17.70;;;;;;;;;;21080864;28;20091;-59
2021/12/23 22:32:12;;;;;;;26.85;18.20;;;;;;;;;;21080750;28;20126;-59
2021/12/23 22:42:14;;;;;;;25.70;19.05;;;;;;;;;;21080357;28;20059;-58
2021/12/23 22:52:16;;;;;;;28.27;17.88;;;;;;;;;;21078732;28;20497;-58
2021/12/23 23:02:18;;;;;;;27.70;19.63;;;;;;;;;;21078902;28;20554;-58
2021/12/23 23:12:23;;;;;;;30.27;18.58;;;;;;;;;;21077406;28;20173;-57
2021/12/23 23:22:25;;;;;;;24.00;17.33;;;;;;;;;;21077759;28;20063;-57
2021/12/23 23:42:58;;;;;;;23.63;16.05;;;;;;;;;;21077601;28;20063;-60
2021/12/23 23:53:04;;;;;;;26.45;16.10;;;;;;;;;;21077421;28;20059;-56
